sensor_id;sensor_type;location;lat;lon;timestamp;pressure;altitude;pressure_sealevel;temperature;humidity
1926;BME280;964;42.606;23.588;2022-07-23T00:00:19;94812.25;;;39.11;24.74
1926;BME280;964;42.606;23.588;2022-07-23T00:02:48;94811.69;;;38.99;24.88
1926;BME280;964;42.606;23.588;2022-07-23T00:05:15;94813.31;;;39.08;24.86
1926;BME280;964;42.606;23.588;2022-07-23T00:07:41;94817.50;;;38.26;25.56
1926;BME280;964;42.606;23.588;2022-07-23T00:10:09;94806.75;;;37.80;26.17
1926;BME280;964;42.606;23.588;2022-07-23T00:12:36;94821.31;;;38.23;25.63
1926;BME280;964;42.606;23.588;2022-07-23T00:15:05;94814.88;;;38.90;24.90
1926;BME280;964;42.606;23.588;2022-07-23T00:17:32;94815.47;;;38.83;25.15
1926;BME280;964;42.606;23.588;2022-07-23T00:20:01;94812.63;;;38.70;25.61
1926;BME280;964;42.606;23.588;2022-07-23T00:22:27;94806.91;;;38.81;25.25
1926;BME280;964;42.606;23.588;2022-07-23T00:24:54;94808.91;;;38.99;24.94
1926;BME280;964;42.606;23.588;2022-07-23T00:27:21;94812.13;;;39.03;24.82
1926;BME280;964;42.606;23.588;2022-07-23T00:29:48;94814.63;;;39.20;25.33
1926;BME280;964;42.606;23.588;2022-07-23T00:32:15;94815.00;;;38.98;24.87
1926;BME280;964;42.606;23.588;2022-07-23T00:34:42;94812.50;;;38.44;25.61
1926;BME280;964;42.606;23.588;2022-07-23T00:37:10;94814.28;;;38.22;25.49
1926;BME280;964;42.606;23.588;2022-07-23T00:39:37;94810.28;;;38.74;25.41
1926;BME280;964;42.606;23.588;2022-07-23T00:42:04;94809.78;;;39.20;25.17
1926;BME280;964;42.606;23.588;2022-07-23T00:44:31;94805.91;;;39.29;24.72
1926;BME280;964;42.606;23.588;2022-07-23T00:46:58;94803.66;;;39.28;24.79
1926;BME280;964;42.606;23.588;2022-07-23T00:49:27;94798.75;;;39.34;24.70
1926;BME280;964;42.606;23.588;2022-07-23T00:51:55;94797.38;;;39.40;24.74
1926;BME280;964;42.606;23.588;2022-07-23T00:54:24;94800.78;;;39.33;24.69
1926;BME280;964;42.606;23.588;2022-07-23T00:56:51;94799.63;;;39.55;24.29
1926;BME280;964;42.606;23.588;2022-07-23T00:59:18;94807.44;;;39.11;24.76
1926;BME280;964;42.606;23.588;2022-07-23T01:01:45;94806.13;;;38.99;25.08
1926;BME280;964;42.606;23.588;2022-07-23T01:04:14;94799.00;;;38.72;25.62
1926;BME280;964;42.606;23.588;2022-07-23T01:06:41;94800.69;;;38.94;26.13
1926;BME280;964;42.606;23.588;2022-07-23T01:09:09;94803.78;;;38.71;26.17
1926;BME280;964;42.606;23.588;2022-07-23T01:11:38;94801.53;;;38.70;26.15
1926;BME280;964;42.606;23.588;2022-07-23T01:14:08;94800.22;;;38.58;26.49
1926;BME280;964;42.606;23.588;2022-07-23T01:16:35;94795.31;;;38.51;26.09
1926;BME280;964;42.606;23.588;2022-07-23T01:19:03;94803.34;;;38.30;25.79
1926;BME280;964;42.606;23.588;2022-07-23T01:21:33;94803.41;;;38.62;25.98
1926;BME280;964;42.606;23.588;2022-07-23T01:24:04;94794.44;;;38.56;25.86
1926;BME280;964;42.606;23.588;2022-07-23T01:26:31;94788.94;;;37.75;26.86
1926;BME280;964;42.606;23.588;2022-07-23T01:28:58;94787.50;;;38.12;26.09
1926;BME280;964;42.606;23.588;2022-07-23T01:31:25;94790.56;;;38.08;26.10
1926;BME280;964;42.606;23.588;2022-07-23T01:33:52;94790.66;;;38.40;25.98
1926;BME280;964;42.606;23.588;2022-07-23T01:36:18;94790.50;;;37.47;27.34
1926;BME280;964;42.606;23.588;2022-07-23T01:38:46;94796.03;;;37.47;27.25
1926;BME280;964;42.606;23.588;2022-07-23T01:41:14;94790.88;;;38.05;26.16
1926;BME280;964;42.606;23.588;2022-07-23T01:43:41;94787.81;;;38.46;26.38
1926;BME280;964;42.606;23.588;2022-07-23T01:46:07;94799.94;;;38.24;26.41
1926;BME280;964;42.606;23.588;2022-07-23T01:48:34;94781.75;;;38.28;26.15
1926;BME280;964;42.606;23.588;2022-07-23T01:51:01;94792.72;;;37.78;26.88
1926;BME280;964;42.606;23.588;2022-07-23T01:53:28;94796.59;;;37.88;27.26
1926;BME280;964;42.606;23.588;2022-07-23T01:55:56;94797.06;;;37.92;26.77
1926;BME280;964;42.606;23.588;2022-07-23T01:58:25;94802.16;;;37.15;27.49
1926;BME280;964;42.606;23.588;2022-07-23T02:00:52;94802.66;;;36.43;28.29
1926;BME280;964;42.606;23.588;2022-07-23T02:03:19;94803.56;;;36.92;27.79
1926;BME280;964;42.606;23.588;2022-07-23T02:05:46;94799.38;;;37.64;27.32
1926;BME280;964;42.606;23.588;2022-07-23T02:08:13;94808.25;;;37.08;27.52
1926;BME280;964;42.606;23.588;2022-07-23T02:10:40;94797.53;;;37.48;27.50
1926;BME280;964;42.606;23.588;2022-07-23T02:13:07;94797.66;;;37.85;26.86
1926;BME280;964;42.606;23.588;2022-07-23T02:15:35;94797.00;;;38.16;26.67
1926;BME280;964;42.606;23.588;2022-07-23T02:18:02;94801.56;;;37.95;26.06
1926;BME280;964;42.606;23.588;2022-07-23T02:20:29;94795.97;;;38.19;25.84
1926;BME280;964;42.606;23.588;2022-07-23T02:22:56;94799.47;;;38.01;26.02
1926;BME280;964;42.606;23.588;2022-07-23T02:25:22;94797.22;;;38.18;26.07
1926;BME280;964;42.606;23.588;2022-07-23T02:27:49;94807.13;;;38.33;25.72
1926;BME280;964;42.606;23.588;2022-07-23T02:30:16;94801.03;;;38.15;26.09
1926;BME280;964;42.606;23.588;2022-07-23T02:32:44;94805.75;;;38.02;26.25
1926;BME280;964;42.606;23.588;2022-07-23T02:35:11;94797.78;;;37.74;26.89
1926;BME280;964;42.606;23.588;2022-07-23T02:37:37;94803.22;;;37.07;27.55
1926;BME280;964;42.606;23.588;2022-07-23T02:40:05;94818.91;;;36.88;27.91
1926;BME280;964;42.606;23.588;2022-07-23T02:42:32;94811.91;;;37.16;27.56
1926;BME280;964;42.606;23.588;2022-07-23T02:44:58;94817.75;;;36.77;27.12
1926;BME280;964;42.606;23.588;2022-07-23T02:47:25;94816.59;;;36.97;27.40
1926;BME280;964;42.606;23.588;2022-07-23T02:49:53;94818.56;;;37.02;27.03
1926;BME280;964;42.606;23.588;2022-07-23T02:52:21;94814.88;;;36.12;27.71
1926;BME280;964;42.606;23.588;2022-07-23T02:54:48;94821.38;;;35.40;29.68
1926;BME280;964;42.606;23.588;2022-07-23T02:57:14;94818.16;;;36.52;27.72
1926;BME280;964;42.606;23.588;2022-07-23T02:59:41;94829.03;;;36.38;28.00
1926;BME280;964;42.606;23.588;2022-07-23T03:02:08;94819.47;;;36.45;27.83
1926;BME280;964;42.606;23.588;2022-07-23T03:04:34;94820.06;;;37.09;27.40
1926;BME280;964;42.606;23.588;2022-07-23T03:07:02;94822.16;;;37.75;26.36
1926;BME280;964;42.606;23.588;2022-07-23T03:09:29;94834.34;;;38.10;26.08
1926;BME280;964;42.606;23.588;2022-07-23T03:11:56;94833.50;;;38.39;25.59
1926;BME280;964;42.606;23.588;2022-07-23T03:14:23;94837.13;;;38.28;25.63
1926;BME280;964;42.606;23.588;2022-07-23T03:16:50;94836.47;;;38.41;25.65
1926;BME280;964;42.606;23.588;2022-07-23T03:19:16;94836.50;;;37.50;26.83
1926;BME280;964;42.606;23.588;2022-07-23T03:21:43;94838.16;;;37.04;26.74
1926;BME280;964;42.606;23.588;2022-07-23T03:24:11;94833.63;;;37.61;26.28
1926;BME280;964;42.606;23.588;2022-07-23T03:26:38;94844.84;;;37.44;26.73
1926;BME280;964;42.606;23.588;2022-07-23T03:29:05;94843.06;;;37.71;26.59
1926;BME280;964;42.606;23.588;2022-07-23T03:31:32;94843.72;;;37.28;26.80
1926;BME280;964;42.606;23.588;2022-07-23T03:33:58;94839.72;;;37.54;27.00
1926;BME280;964;42.606;23.588;2022-07-23T03:36:25;94841.00;;;37.53;26.48
1926;BME280;964;42.606;23.588;2022-07-23T03:38:52;94835.72;;;37.55;26.68
1926;BME280;964;42.606;23.588;2022-07-23T03:41:20;94838.22;;;37.77;26.12
1926;BME280;964;42.606;23.588;2022-07-23T03:43:47;94839.78;;;37.97;26.13
1926;BME280;964;42.606;23.588;2022-07-23T03:46:14;94843.34;;;38.35;25.73
1926;BME280;964;42.606;23.588;2022-07-23T03:48:41;94841.31;;;38.35;26.28
1926;BME280;964;42.606;23.588;2022-07-23T03:51:07;94839.59;;;38.13;26.23
1926;BME280;964;42.606;23.588;2022-07-23T03:53:34;94839.97;;;37.80;26.26
1926;BME280;964;42.606;23.588;2022-07-23T03:56:01;94841.34;;;37.68;26.44
1926;BME280;964;42.606;23.588;2022-07-23T03:58:29;94837.75;;;37.97;26.36
1926;BME280;964;42.606;23.588;2022-07-23T04:00:56;94844.69;;;38.28;26.60
1926;BME280;964;42.606;23.588;2022-07-23T04:03:22;94837.88;;;38.10;26.90
1926;BME280;964;42.606;23.588;2022-07-23T04:05:49;94841.84;;;38.71;25.97
1926;BME280;964;42.606;23.588;2022-07-23T04:08:16;94847.75;;;38.62;25.97
1926;BME280;964;42.606;23.588;2022-07-23T04:10:42;94837.91;;;38.98;25.34
1926;BME280;964;42.606;23.588;2022-07-23T04:13:09;94847.69;;;38.49;26.50
1926;BME280;964;42.606;23.588;2022-07-23T04:15:38;94846.72;;;38.46;26.26
1926;BME280;964;42.606;23.588;2022-07-23T04:18:06;94844.38;;;38.32;26.27
1926;BME280;964;42.606;23.588;2022-07-23T04:20:33;94842.22;;;39.12;25.41
1926;BME280;964;42.606;23.588;2022-07-23T04:23:00;94842.41;;;39.46;24.84
1926;BME280;964;42.606;23.588;2022-07-23T04:25:26;94844.44;;;39.59;24.59
1926;BME280;964;42.606;23.588;2022-07-23T04:27:53;94851.28;;;39.45;24.66
1926;BME280;964;42.606;23.588;2022-07-23T04:30:20;94852.22;;;39.60;24.54
1926;BME280;964;42.606;23.588;2022-07-23T04:32:48;94853.78;;;39.75;24.36
1926;BME280;964;42.606;23.588;2022-07-23T04:35:15;94851.63;;;39.81;24.41
1926;BME280;964;42.606;23.588;2022-07-23T04:37:41;94860.66;;;39.55;24.66
1926;BME280;964;42.606;23.588;2022-07-23T04:40:09;94850.97;;;40.01;24.91
1926;BME280;964;42.606;23.588;2022-07-23T04:42:36;94861.66;;;39.97;24.57
1926;BME280;964;42.606;23.588;2022-07-23T04:45:03;94860.25;;;40.30;24.10
1926;BME280;964;42.606;23.588;2022-07-23T04:47:31;94855.53;;;40.38;24.44
1926;BME280;964;42.606;23.588;2022-07-23T04:49:59;94854.22;;;40.65;24.83
1926;BME280;964;42.606;23.588;2022-07-23T04:52:26;94861.09;;;40.11;24.86
1926;BME280;964;42.606;23.588;2022-07-23T04:54:53;94855.38;;;39.96;24.73
1926;BME280;964;42.606;23.588;2022-07-23T04:57:19;94871.06;;;39.81;24.78
1926;BME280;964;42.606;23.588;2022-07-23T04:59:46;94856.31;;;40.12;24.46
1926;BME280;964;42.606;23.588;2022-07-23T05:02:12;94860.09;;;40.14;23.98
1926;BME280;964;42.606;23.588;2022-07-23T05:04:39;94865.63;;;40.14;24.18
1926;BME280;964;42.606;23.588;2022-07-23T05:07:07;94868.16;;;39.86;24.33
1926;BME280;964;42.606;23.588;2022-07-23T05:09:34;94868.84;;;39.34;24.43
1926;BME280;964;42.606;23.588;2022-07-23T05:12:01;94870.81;;;39.65;24.12
1926;BME280;964;42.606;23.588;2022-07-23T05:14:28;94859.44;;;40.22;23.98
1926;BME280;964;42.606;23.588;2022-07-23T05:16:54;94867.59;;;40.87;23.38
1926;BME280;964;42.606;23.588;2022-07-23T05:19:21;94858.78;;;40.15;23.58
1926;BME280;964;42.606;23.588;2022-07-23T05:21:48;94861.66;;;40.70;22.66
1926;BME280;964;42.606;23.588;2022-07-23T05:24:16;94874.22;;;40.50;22.76
1926;BME280;964;42.606;23.588;2022-07-23T05:26:43;94866.84;;;40.53;22.96
1926;BME280;964;42.606;23.588;2022-07-23T05:29:09;94877.19;;;40.19;23.49
1926;BME280;964;42.606;23.588;2022-07-23T05:31:36;94871.56;;;40.45;23.37
1926;BME280;964;42.606;23.588;2022-07-23T05:34:03;94870.75;;;41.04;22.33
1926;BME280;964;42.606;23.588;2022-07-23T05:36:31;94870.63;;;41.31;22.04
1926;BME280;964;42.606;23.588;2022-07-23T05:38:58;94872.19;;;41.39;22.11
1926;BME280;964;42.606;23.588;2022-07-23T05:41:27;94878.41;;;41.32;22.87
1926;BME280;964;42.606;23.588;2022-07-23T05:43:54;94882.41;;;41.65;22.53
1926;BME280;964;42.606;23.588;2022-07-23T05:46:21;94884.78;;;41.61;22.77
1926;BME280;964;42.606;23.588;2022-07-23T05:48:48;94875.94;;;41.91;22.03
1926;BME280;964;42.606;23.588;2022-07-23T05:51:19;94880.94;;;42.21;21.48
1926;BME280;964;42.606;23.588;2022-07-23T05:53:46;94889.50;;;42.23;21.88
1926;BME280;964;42.606;23.588;2022-07-23T05:56:13;94880.31;;;42.43;21.43
1926;BME280;964;42.606;23.588;2022-07-23T05:58:41;94879.66;;;42.22;22.46
1926;BME280;964;42.606;23.588;2022-07-23T06:01:08;94875.72;;;43.12;22.02
1926;BME280;964;42.606;23.588;2022-07-23T06:03:35;94882.81;;;43.43;21.84
1926;BME280;964;42.606;23.588;2022-07-23T06:06:02;94873.88;;;43.52;21.30
1926;BME280;964;42.606;23.588;2022-07-23T06:08:28;94876.84;;;43.69;21.65
1926;BME280;964;42.606;23.588;2022-07-23T06:10:55;94875.34;;;43.83;20.86
1926;BME280;964;42.606;23.588;2022-07-23T06:13:22;94872.38;;;43.89;20.71
1926;BME280;964;42.606;23.588;2022-07-23T06:15:50;94877.97;;;43.89;21.27
1926;BME280;964;42.606;23.588;2022-07-23T06:18:17;94865.19;;;44.41;21.57
1926;BME280;964;42.606;23.588;2022-07-23T06:20:44;94868.47;;;43.84;20.77
1926;BME280;964;42.606;23.588;2022-07-23T06:23:10;94871.72;;;44.36;20.68
1926;BME280;964;42.606;23.588;2022-07-23T06:25:37;94858.75;;;44.63;20.16
1926;BME280;964;42.606;23.588;2022-07-23T06:28:04;94855.97;;;44.96;19.60
1926;BME280;964;42.606;23.588;2022-07-23T06:30:31;94856.53;;;44.94;19.83
1926;BME280;964;42.606;23.588;2022-07-23T06:32:59;94849.31;;;45.41;18.92
1926;BME280;964;42.606;23.588;2022-07-23T06:35:26;94853.41;;;45.15;19.69
1926;BME280;964;42.606;23.588;2022-07-23T06:37:53;94859.19;;;44.84;20.26
1926;BME280;964;42.606;23.588;2022-07-23T06:40:19;94866.19;;;44.68;20.48
1926;BME280;964;42.606;23.588;2022-07-23T06:42:46;94858.41;;;44.92;19.93
1926;BME280;964;42.606;23.588;2022-07-23T06:45:13;94862.41;;;45.38;20.09
1926;BME280;964;42.606;23.588;2022-07-23T06:47:39;94845.31;;;45.93;19.57
1926;BME280;964;42.606;23.588;2022-07-23T06:50:09;94847.81;;;46.23;18.86
1926;BME280;964;42.606;23.588;2022-07-23T06:52:36;94850.66;;;46.33;18.48
1926;BME280;964;42.606;23.588;2022-07-23T06:55:03;94863.91;;;44.74;19.82
1926;BME280;964;42.606;23.588;2022-07-23T06:57:30;94848.19;;;46.20;18.21
1926;BME280;964;42.606;23.588;2022-07-23T06:59:57;94853.91;;;46.73;18.35
1926;BME280;964;42.606;23.588;2022-07-23T07:02:23;94843.31;;;45.86;18.46
1926;BME280;964;42.606;23.588;2022-07-23T07:04:50;94852.88;;;46.35;18.39
1926;BME280;964;42.606;23.588;2022-07-23T07:07:20;94841.72;;;46.61;18.67
1926;BME280;964;42.606;23.588;2022-07-23T07:09:46;94840.69;;;47.10;18.20
1926;BME280;964;42.606;23.588;2022-07-23T07:12:13;94839.72;;;46.98;18.47
1926;BME280;964;42.606;23.588;2022-07-23T07:14:40;94835.31;;;47.41;18.13
1926;BME280;964;42.606;23.588;2022-07-23T07:17:06;94828.19;;;47.86;17.11
1926;BME280;964;42.606;23.588;2022-07-23T07:19:33;94835.28;;;46.68;17.52
1926;BME280;964;42.606;23.588;2022-07-23T07:22:00;94835.63;;;47.45;17.47
1926;BME280;964;42.606;23.588;2022-07-23T07:24:28;94824.44;;;47.18;17.67
1926;BME280;964;42.606;23.588;2022-07-23T07:26:54;94823.53;;;47.52;17.95
1926;BME280;964;42.606;23.588;2022-07-23T07:29:21;94812.53;;;48.02;17.26
1926;BME280;964;42.606;23.588;2022-07-23T07:31:48;94815.81;;;48.28;17.45
1926;BME280;964;42.606;23.588;2022-07-23T07:34:14;94818.19;;;48.91;16.76
1926;BME280;964;42.606;23.588;2022-07-23T07:36:41;94813.44;;;49.03;17.71
1926;BME280;964;42.606;23.588;2022-07-23T07:39:08;94817.09;;;49.15;16.79
1926;BME280;964;42.606;23.588;2022-07-23T07:41:37;94801.09;;;49.91;16.22
1926;BME280;964;42.606;23.588;2022-07-23T07:44:04;94797.59;;;49.81;17.68
1926;BME280;964;42.606;23.588;2022-07-23T07:46:31;94796.53;;;50.07;17.16
1926;BME280;964;42.606;23.588;2022-07-23T07:48:57;94792.75;;;49.50;16.78
1926;BME280;964;42.606;23.588;2022-07-23T07:51:25;94792.72;;;49.81;16.66
1926;BME280;964;42.606;23.588;2022-07-23T07:53:52;94790.56;;;49.91;16.11
1926;BME280;964;42.606;23.588;2022-07-23T07:56:19;94798.34;;;50.35;16.62
1926;BME280;964;42.606;23.588;2022-07-23T07:58:47;94793.44;;;50.03;16.18
1926;BME280;964;42.606;23.588;2022-07-23T08:01:14;94795.91;;;50.74;16.35
1926;BME280;964;42.606;23.588;2022-07-23T08:03:40;94798.41;;;50.14;16.38
1926;BME280;964;42.606;23.588;2022-07-23T08:06:07;94793.59;;;50.71;16.04
1926;BME280;964;42.606;23.588;2022-07-23T08:08:34;94791.47;;;49.73;16.67
1926;BME280;964;42.606;23.588;2022-07-23T08:22:02;94782.16;;;49.82;16.65
1926;BME280;964;42.606;23.588;2022-07-23T08:24:29;94763.56;;;50.42;15.76
1926;BME280;964;42.606;23.588;2022-07-23T08:26:56;94778.38;;;50.10;16.32
1926;BME280;964;42.606;23.588;2022-07-23T08:29:22;94774.59;;;50.50;17.20
1926;BME280;964;42.606;23.588;2022-07-23T08:31:49;94774.19;;;50.88;15.75
1926;BME280;964;42.606;23.588;2022-07-23T08:34:16;94779.53;;;50.61;16.43
1926;BME280;964;42.606;23.588;2022-07-23T08:36:43;94778.84;;;50.84;16.36
1926;BME280;964;42.606;23.588;2022-07-23T08:39:11;94781.06;;;50.74;15.49
1926;BME280;964;42.606;23.588;2022-07-23T08:41:39;94777.16;;;50.79;15.67
1926;BME280;964;42.606;23.588;2022-07-23T08:44:07;94776.47;;;50.69;16.48
1926;BME280;964;42.606;23.588;2022-07-23T08:46:35;94773.41;;;50.65;15.90
1926;BME280;964;42.606;23.588;2022-07-23T08:49:03;94769.41;;;49.81;16.03
1926;BME280;964;42.606;23.588;2022-07-23T08:51:30;94775.19;;;51.28;15.04
1926;BME280;964;42.606;23.588;2022-07-23T08:53:57;94770.41;;;50.39;14.96
1926;BME280;964;42.606;23.588;2022-07-23T08:56:26;94766.84;;;50.72;14.42
1926;BME280;964;42.606;23.588;2022-07-23T08:58:53;94774.84;;;51.33;14.34
1926;BME280;964;42.606;23.588;2022-07-23T09:01:20;94766.47;;;51.35;14.46
1926;BME280;964;42.606;23.588;2022-07-23T09:03:46;94781.25;;;50.54;15.62
1926;BME280;964;42.606;23.588;2022-07-23T09:06:13;94762.25;;;51.60;14.99
1926;BME280;964;42.606;23.588;2022-07-23T09:08:41;94765.41;;;52.14;15.01
1926;BME280;964;42.606;23.588;2022-07-23T09:11:09;94770.38;;;51.54;15.28
1926;BME280;964;42.606;23.588;2022-07-23T09:13:39;94760.16;;;51.60;14.58
1926;BME280;964;42.606;23.588;2022-07-23T09:16:09;94755.25;;;51.61;15.24
1926;BME280;964;42.606;23.588;2022-07-23T09:18:41;94756.50;;;52.06;14.64
1926;BME280;964;42.606;23.588;2022-07-23T09:21:14;94756.38;;;52.04;14.79
1926;BME280;964;42.606;23.588;2022-07-23T09:23:43;94759.16;;;52.80;14.29
1926;BME280;964;42.606;23.588;2022-07-23T09:26:22;94753.53;;;52.29;14.59
1926;BME280;964;42.606;23.588;2022-07-23T09:28:56;94757.38;;;52.48;14.69
1926;BME280;964;42.606;23.588;2022-07-23T09:31:24;94753.03;;;53.24;13.83
1926;BME280;964;42.606;23.588;2022-07-23T09:33:51;94750.59;;;53.05;13.48
1926;BME280;964;42.606;23.588;2022-07-23T09:36:27;94741.31;;;54.16;12.96
1926;BME280;964;42.606;23.588;2022-07-23T09:38:55;94735.00;;;53.88;13.26
1926;BME280;964;42.606;23.588;2022-07-23T09:41:21;94740.69;;;53.88;12.65
1926;BME280;964;42.606;23.588;2022-07-23T09:43:55;94737.19;;;53.90;12.91
1926;BME280;964;42.606;23.588;2022-07-23T09:46:24;94740.50;;;53.57;12.88
1926;BME280;964;42.606;23.588;2022-07-23T09:48:51;94725.41;;;53.66;12.77
1926;BME280;964;42.606;23.588;2022-07-23T09:51:19;94729.38;;;53.61;12.72
1926;BME280;964;42.606;23.588;2022-07-23T09:53:49;94724.47;;;54.49;12.67
1926;BME280;964;42.606;23.588;2022-07-23T09:56:17;94713.94;;;54.99;11.92
1926;BME280;964;42.606;23.588;2022-07-23T09:58:48;94709.38;;;55.07;12.68
1926;BME280;964;42.606;23.588;2022-07-23T10:01:17;94713.22;;;54.83;12.32
1926;BME280;964;42.606;23.588;2022-07-23T10:03:46;94704.84;;;55.18;12.04
1926;BME280;964;42.606;23.588;2022-07-23T10:06:14;94702.59;;;54.99;12.61
1926;BME280;964;42.606;23.588;2022-07-23T10:08:41;94707.53;;;54.98;11.89
1926;BME280;964;42.606;23.588;2022-07-23T10:11:09;94703.25;;;55.64;11.87
1926;BME280;964;42.606;23.588;2022-07-23T10:13:38;94701.50;;;54.90;12.29
1926;BME280;964;42.606;23.588;2022-07-23T10:16:21;94692.97;;;55.73;13.25
1926;BME280;964;42.606;23.588;2022-07-23T10:18:49;94693.50;;;55.51;12.41
1926;BME280;964;42.606;23.588;2022-07-23T10:21:20;94697.38;;;55.09;13.13
1926;BME280;964;42.606;23.588;2022-07-23T10:24:01;94696.78;;;55.97;11.16
1926;BME280;964;42.606;23.588;2022-07-23T10:26:36;94683.56;;;56.03;11.62
1926;BME280;964;42.606;23.588;2022-07-23T10:29:16;94684.97;;;56.40;11.30
1926;BME280;964;42.606;23.588;2022-07-23T10:31:56;94678.16;;;56.11;11.41
1926;BME280;964;42.606;23.588;2022-07-23T10:34:34;94680.88;;;56.25;11.68
1926;BME280;964;42.606;23.588;2022-07-23T10:37:12;94674.50;;;56.09;11.84
1926;BME280;964;42.606;23.588;2022-07-23T10:39:42;94672.47;;;56.47;10.98
1926;BME280;964;42.606;23.588;2022-07-23T10:42:11;94677.88;;;56.41;11.80
1926;BME280;964;42.606;23.588;2022-07-23T10:44:39;94672.50;;;56.86;11.05
1926;BME280;964;42.606;23.588;2022-07-23T10:47:10;94670.53;;;55.63;11.19
1926;BME280;964;42.606;23.588;2022-07-23T10:49:46;94661.84;;;55.77;11.46
1926;BME280;964;42.606;23.588;2022-07-23T10:52:24;94659.72;;;55.59;12.06
1926;BME280;964;42.606;23.588;2022-07-23T10:54:52;94657.78;;;56.37;11.88
1926;BME280;964;42.606;23.588;2022-07-23T10:57:20;94662.38;;;57.64;11.24
1926;BME280;964;42.606;23.588;2022-07-23T11:00:14;94648.16;;;57.88;11.12
1926;BME280;964;42.606;23.588;2022-07-23T11:02:45;94651.13;;;57.27;11.71
1926;BME280;964;42.606;23.588;2022-07-23T11:05:14;94646.22;;;57.94;10.92
1926;BME280;964;42.606;23.588;2022-07-23T11:10:53;94643.22;;;57.25;10.92
1926;BME280;964;42.606;23.588;2022-07-23T11:13:31;94622.97;;;59.29;10.32
1926;BME280;964;42.606;23.588;2022-07-23T11:16:25;94631.19;;;56.68;11.04
1926;BME280;964;42.606;23.588;2022-07-23T11:19:03;94642.47;;;53.52;13.86
1926;BME280;964;42.606;23.588;2022-07-23T11:21:44;94629.47;;;55.86;12.23
1926;BME280;964;42.606;23.588;2022-07-23T11:24:13;94629.66;;;56.65;11.98
1926;BME280;964;42.606;23.588;2022-07-23T11:26:46;94627.19;;;56.94;11.21
1926;BME280;964;42.606;23.588;2022-07-23T11:29:42;94631.94;;;56.68;11.40
1926;BME280;964;42.606;23.588;2022-07-23T11:35:27;94611.22;;;57.48;11.28
1926;BME280;964;42.606;23.588;2022-07-23T11:38:03;94606.38;;;58.46;9.91
1926;BME280;964;42.606;23.588;2022-07-23T11:40:31;94603.63;;;58.01;10.87
1926;BME280;964;42.606;23.588;2022-07-23T11:42:59;94601.56;;;58.53;10.39
1926;BME280;964;42.606;23.588;2022-07-23T11:45:32;94607.38;;;58.31;10.75
1926;BME280;964;42.606;23.588;2022-07-23T11:47:59;94610.00;;;57.77;10.10
1926;BME280;964;42.606;23.588;2022-07-23T11:50:28;94606.13;;;57.67;10.15
1926;BME280;964;42.606;23.588;2022-07-23T11:52:54;94607.16;;;57.12;9.82
1926;BME280;964;42.606;23.588;2022-07-23T11:55:21;94604.13;;;57.71;9.75
1926;BME280;964;42.606;23.588;2022-07-23T11:57:50;94600.59;;;56.48;10.62
1926;BME280;964;42.606;23.588;2022-07-23T12:00:19;94602.44;;;57.21;10.07
1926;BME280;964;42.606;23.588;2022-07-23T12:02:49;94595.91;;;57.38;9.76
1926;BME280;964;42.606;23.588;2022-07-23T12:05:17;94597.78;;;57.96;9.84
1926;BME280;964;42.606;23.588;2022-07-23T12:07:46;94593.03;;;56.96;10.62
1926;BME280;964;42.606;23.588;2022-07-23T12:10:17;94588.13;;;57.19;10.27
1926;BME280;964;42.606;23.588;2022-07-23T12:12:45;94592.22;;;57.14;9.61
1926;BME280;964;42.606;23.588;2022-07-23T12:15:14;94594.31;;;56.52;10.73
1926;BME280;964;42.606;23.588;2022-07-23T12:17:42;94589.31;;;57.12;9.50
1926;BME280;964;42.606;23.588;2022-07-23T12:20:13;94593.34;;;55.02;10.60
1926;BME280;964;42.606;23.588;2022-07-23T12:22:43;94582.22;;;56.14;10.31
1926;BME280;964;42.606;23.588;2022-07-23T12:25:16;94585.22;;;56.38;10.50
1926;BME280;964;42.606;23.588;2022-07-23T12:27:44;94570.19;;;56.94;9.66
1926;BME280;964;42.606;23.588;2022-07-23T12:30:19;94570.25;;;57.62;9.41
1926;BME280;964;42.606;23.588;2022-07-23T12:32:49;94569.31;;;57.53;9.20
1926;BME280;964;42.606;23.588;2022-07-23T12:35:16;94570.91;;;56.75;9.64
1926;BME280;964;42.606;23.588;2022-07-23T12:37:44;94563.81;;;57.61;9.78
1926;BME280;964;42.606;23.588;2022-07-23T12:40:27;94562.06;;;57.50;9.81
1926;BME280;964;42.606;23.588;2022-07-23T12:42:57;94563.91;;;57.20;9.59
1926;BME280;964;42.606;23.588;2022-07-23T12:45:24;94559.13;;;58.17;9.17
1926;BME280;964;42.606;23.588;2022-07-23T12:48:03;94554.75;;;58.89;11.02
1926;BME280;964;42.606;23.588;2022-07-23T12:50:37;94553.72;;;58.53;9.30
1926;BME280;964;42.606;23.588;2022-07-23T12:53:06;94544.59;;;56.96;9.73
1926;BME280;964;42.606;23.588;2022-07-23T12:55:35;94548.72;;;57.35;10.62
1926;BME280;964;42.606;23.588;2022-07-23T12:58:07;94542.94;;;58.00;9.59
1926;BME280;964;42.606;23.588;2022-07-23T13:00:56;94545.84;;;57.78;10.22
1926;BME280;964;42.606;23.588;2022-07-23T13:03:25;94547.78;;;57.50;10.02
1926;BME280;964;42.606;23.588;2022-07-23T13:05:52;94544.66;;;57.64;9.08
1926;BME280;964;42.606;23.588;2022-07-23T13:08:19;94543.72;;;58.03;8.31
1926;BME280;964;42.606;23.588;2022-07-23T13:10:47;94534.69;;;57.65;8.66
1926;BME280;964;42.606;23.588;2022-07-23T13:13:17;94535.84;;;58.53;8.46
1926;BME280;964;42.606;23.588;2022-07-23T13:15:44;94549.53;;;57.83;8.83
1926;BME280;964;42.606;23.588;2022-07-23T13:18:10;94548.00;;;57.34;9.25
1926;BME280;964;42.606;23.588;2022-07-23T13:20:37;94538.38;;;58.15;9.42
1926;BME280;964;42.606;23.588;2022-07-23T13:23:05;94548.44;;;56.83;8.65
1926;BME280;964;42.606;23.588;2022-07-23T13:25:32;94543.09;;;55.77;9.40
1926;BME280;964;42.606;23.588;2022-07-23T13:28:00;94548.19;;;57.19;8.73
1926;BME280;964;42.606;23.588;2022-07-23T13:30:27;94545.09;;;57.11;8.76
1926;BME280;964;42.606;23.588;2022-07-23T13:32:54;94539.03;;;57.00;8.46
1926;BME280;964;42.606;23.588;2022-07-23T13:35:21;94536.25;;;58.41;7.89
1926;BME280;964;42.606;23.588;2022-07-23T13:37:48;94547.44;;;56.96;8.33
1926;BME280;964;42.606;23.588;2022-07-23T13:40:15;94545.03;;;57.09;8.43
1926;BME280;964;42.606;23.588;2022-07-23T13:42:42;94543.63;;;57.10;8.78
1926;BME280;964;42.606;23.588;2022-07-23T13:45:10;94542.91;;;57.09;8.38